Eviapetrol II — SY6858 — position and weather

sailwx.info

Track history (hours):
 
Tides and Currents Weather Stations Pressure Air Temp Water Temp Dewpoint Dewpoint Depression Visibility Wind Speed Wind Dir Waves Ship Positions

Eviapetrol II

Last reported at 2016-Sep-24 03:33 UTC. Time now 2016-Sep-27 13:44 UTC.
Position N 38°02' E 023°30'.

Length 78 m; draft 4 m.

Type: Tanker. MMSI: 240493000.

Date/timePositionNaut miles runAvg speedWind from/ knotsBaromVisibWave heightAir tempDewpointWater temp
2016-Sep-24 03:33N 38°02' E 023°30'0 0.0
2016-Sep-24 02:33N 38°02' E 023°30'0 0.0
2016-Sep-24 01:33N 38°02' E 023°30'0 0.0
2016-Sep-24 00:33N 38°02' E 023°30'4 0.4
2016-Sep-23 13:20N 38°02' E 023°36'3 0.5
2016-Sep-23 06:33N 38°02' E 023°31'0 0.0
2016-Sep-23 04:33N 38°02' E 023°31'3 3.4
2016-Sep-23 03:33N 38°00' E 023°28'8 7.5
2016-Sep-23 02:33N 37°54' E 023°22'1010.4
2016-Sep-23 01:34N 37°44' E 023°18'9 8.6
2016-Sep-23 00:32N 37°38' E 023°27'1110.8
2016-Sep-22 23:32N 37°33' E 023°38'  
2016-Sep-20 10:13N 37°27' E 023°35'16 9.8
2016-Sep-20 08:33N 37°39' E 023°22'9 8.8
2016-Sep-20 07:34N 37°48' E 023°19'1010.2
2016-Sep-20 06:34N 37°57' E 023°24'10 1.4
2016-Sep-19 23:31N 38°02' E 023°36'0 0.0
2016-Sep-19 19:31N 38°02' E 023°36'0 0.0
2016-Sep-19 18:25N 38°02' E 023°36'0 0.0
2016-Sep-19 16:28N 38°02' E 023°36'4 1.9
2016-Sep-19 14:18N 38°02' E 023°30'0 0.0
2016-Sep-19 11:18N 38°02' E 023°30'0 0.0
2016-Sep-19 09:11N 38°02' E 023°30'1 0.4
2016-Sep-19 07:33N 38°02' E 023°31'7 7.4
2016-Sep-19 06:33N 37°55' E 023°36'24 7.9
2016-Sep-19 03:33N 37°38' E 023°56'  
2016-Sep-15 22:04N 37°10' E 025°48'17 9.8
2016-Sep-15 20:19N 37°15' E 025°27'7910.2
2016-Sep-15 12:33N 37°37' E 023°52'1010.0
2016-Sep-15 11:33N 37°42' E 023°41'21 2.8
2016-Sep-15 04:19N 38°02' E 023°33'0 0.0
2016-Sep-15 03:22N 38°02' E 023°33'0 0.0
2016-Sep-15 01:13N 38°02' E 023°33'2 0.8
2016-Sep-14 22:31N 38°02' E 023°36'0 0.0
2016-Sep-14 21:28N 38°02' E 023°36'0 0.0
2016-Sep-14 17:31N 38°02' E 023°36'0 0.0
2016-Sep-14 16:33N 38°02' E 023°36'7 2.4
2016-Sep-14 13:33N 37°55' E 023°37'1110.6
2016-Sep-14 12:33N 37°45' E 023°43'2110.7
2016-Sep-14 10:33N 37°25' E 023°54'  
Track history (hours):
 
Tides and Currents Weather Stations Pressure Air Temp Water Temp Dewpoint Dewpoint Depression Visibility Wind Speed Wind Dir Waves Ship Positions

Eviapetrol II

Last reported at 2016-Sep-24 03:33 UTC. Time now 2016-Sep-27 13:44 UTC.
Position N 38°02' E 023°30'.

Length 78 m; draft 4 m.

Type: Tanker. MMSI: 240493000.

Date/timePositionNaut miles runAvg speedWind from/ knotsBaromVisibWave heightAir tempDewpointWater temp
2016-Sep-24 03:33N 38°02' E 023°30'0 0.0
2016-Sep-24 02:33N 38°02' E 023°30'0 0.0
2016-Sep-24 01:33N 38°02' E 023°30'0 0.0
2016-Sep-24 00:33N 38°02' E 023°30'4 0.4
2016-Sep-23 13:20N 38°02' E 023°36'3 0.5
2016-Sep-23 06:33N 38°02' E 023°31'0 0.0
2016-Sep-23 04:33N 38°02' E 023°31'3 3.4
2016-Sep-23 03:33N 38°00' E 023°28'8 7.5
2016-Sep-23 02:33N 37°54' E 023°22'1010.4
2016-Sep-23 01:34N 37°44' E 023°18'9 8.6
2016-Sep-23 00:32N 37°38' E 023°27'1110.8
2016-Sep-22 23:32N 37°33' E 023°38'  
2016-Sep-20 10:13N 37°27' E 023°35'16 9.8
2016-Sep-20 08:33N 37°39' E 023°22'9 8.8
2016-Sep-20 07:34N 37°48' E 023°19'1010.2
2016-Sep-20 06:34N 37°57' E 023°24'10 1.4
2016-Sep-19 23:31N 38°02' E 023°36'0 0.0
2016-Sep-19 19:31N 38°02' E 023°36'0 0.0
2016-Sep-19 18:25N 38°02' E 023°36'0 0.0
2016-Sep-19 16:28N 38°02' E 023°36'4 1.9
2016-Sep-19 14:18N 38°02' E 023°30'0 0.0
2016-Sep-19 11:18N 38°02' E 023°30'0 0.0
2016-Sep-19 09:11N 38°02' E 023°30'1 0.4
2016-Sep-19 07:33N 38°02' E 023°31'7 7.4
2016-Sep-19 06:33N 37°55' E 023°36'24 7.9
2016-Sep-19 03:33N 37°38' E 023°56'  
2016-Sep-15 22:04N 37°10' E 025°48'17 9.8
2016-Sep-15 20:19N 37°15' E 025°27'7910.2
2016-Sep-15 12:33N 37°37' E 023°52'1010.0
2016-Sep-15 11:33N 37°42' E 023°41'21 2.8
2016-Sep-15 04:19N 38°02' E 023°33'0 0.0
2016-Sep-15 03:22N 38°02' E 023°33'0 0.0
2016-Sep-15 01:13N 38°02' E 023°33'2 0.8
2016-Sep-14 22:31N 38°02' E 023°36'0 0.0
2016-Sep-14 21:28N 38°02' E 023°36'0 0.0
2016-Sep-14 17:31N 38°02' E 023°36'0 0.0
2016-Sep-14 16:33N 38°02' E 023°36'7 2.4
2016-Sep-14 13:33N 37°55' E 023°37'1110.6
2016-Sep-14 12:33N 37°45' E 023°43'2110.7
2016-Sep-14 10:33N 37°25' E 023°54'  

Dump ship's entire track history